sensor_id;sensor_type;location;lat;lon;timestamp;P1;durP1;ratioP1;P2;durP2;ratioP2
54452;SDS011;40363;52.270;10.546;2023-03-01T00:01:09;16.08;;;7.25;;
54452;SDS011;40363;52.270;10.546;2023-03-01T00:03:37;12.93;;;8.00;;
54452;SDS011;40363;52.270;10.546;2023-03-01T00:06:05;13.77;;;7.55;;
54452;SDS011;40363;52.270;10.546;2023-03-01T00:08:32;13.25;;;7.88;;
54452;SDS011;40363;52.270;10.546;2023-03-01T00:11:00;14.68;;;7.47;;
54452;SDS011;40363;52.270;10.546;2023-03-01T00:13:28;13.23;;;7.30;;
54452;SDS011;40363;52.270;10.546;2023-03-01T00:15:56;12.00;;;7.43;;
54452;SDS011;40363;52.270;10.546;2023-03-01T00:18:23;12.93;;;7.50;;
54452;SDS011;40363;52.270;10.546;2023-03-01T00:20:50;17.38;;;7.68;;
54452;SDS011;40363;52.270;10.546;2023-03-01T00:23:17;10.02;;;6.97;;
54452;SDS011;40363;52.270;10.546;2023-03-01T00:25:44;21.00;;;6.50;;
54452;SDS011;40363;52.270;10.546;2023-03-01T00:28:10;12.43;;;6.13;;
54452;SDS011;40363;52.270;10.546;2023-03-01T00:30:37;19.25;;;7.82;;
54452;SDS011;40363;52.270;10.546;2023-03-01T00:33:05;13.35;;;7.47;;
54452;SDS011;40363;52.270;10.546;2023-03-01T00:35:32;12.13;;;6.20;;
54452;SDS011;40363;52.270;10.546;2023-03-01T00:37:58;17.83;;;6.20;;
54452;SDS011;40363;52.270;10.546;2023-03-01T00:40:25;13.18;;;7.00;;
54452;SDS011;40363;52.270;10.546;2023-03-01T00:42:52;9.93;;;6.65;;
54452;SDS011;40363;52.270;10.546;2023-03-01T00:45:19;11.13;;;6.70;;
54452;SDS011;40363;52.270;10.546;2023-03-01T00:47:46;13.60;;;6.82;;
54452;SDS011;40363;52.270;10.546;2023-03-01T00:50:14;10.68;;;6.20;;
54452;SDS011;40363;52.270;10.546;2023-03-01T00:52:41;9.45;;;5.95;;
54452;SDS011;40363;52.270;10.546;2023-03-01T00:55:08;12.55;;;6.85;;
54452;SDS011;40363;52.270;10.546;2023-03-01T00:57:35;15.27;;;7.32;;
54452;SDS011;40363;52.270;10.546;2023-03-01T01:00:02;11.60;;;5.82;;
54452;SDS011;40363;52.270;10.546;2023-03-01T01:02:29;12.75;;;6.05;;
54452;SDS011;40363;52.270;10.546;2023-03-01T01:04:58;15.05;;;6.95;;
54452;SDS011;40363;52.270;10.546;2023-03-01T01:07:26;10.45;;;6.43;;
54452;SDS011;40363;52.270;10.546;2023-03-01T01:09:53;13.27;;;7.05;;
54452;SDS011;40363;52.270;10.546;2023-03-01T01:12:19;16.80;;;7.88;;
54452;SDS011;40363;52.270;10.546;2023-03-01T01:14:46;15.57;;;7.80;;
54452;SDS011;40363;52.270;10.546;2023-03-01T01:17:12;17.85;;;8.93;;
54452;SDS011;40363;52.270;10.546;2023-03-01T01:19:39;16.88;;;7.18;;
54452;SDS011;40363;52.270;10.546;2023-03-01T01:22:06;11.77;;;7.50;;
54452;SDS011;40363;52.270;10.546;2023-03-01T01:24:33;14.93;;;7.25;;
54452;SDS011;40363;52.270;10.546;2023-03-01T01:27:00;12.40;;;7.35;;
54452;SDS011;40363;52.270;10.546;2023-03-01T01:29:27;11.35;;;6.70;;
54452;SDS011;40363;52.270;10.546;2023-03-01T01:31:54;12.48;;;7.00;;
54452;SDS011;40363;52.270;10.546;2023-03-01T01:34:21;9.07;;;5.82;;
54452;SDS011;40363;52.270;10.546;2023-03-01T01:36:48;12.60;;;6.60;;
54452;SDS011;40363;52.270;10.546;2023-03-01T01:39:15;8.88;;;6.43;;
54452;SDS011;40363;52.270;10.546;2023-03-01T01:41:43;10.85;;;6.63;;
54452;SDS011;40363;52.270;10.546;2023-03-01T01:44:11;12.73;;;6.82;;
54452;SDS011;40363;52.270;10.546;2023-03-01T01:46:39;15.55;;;6.97;;
54452;SDS011;40363;52.270;10.546;2023-03-01T01:49:10;11.85;;;7.05;;
54452;SDS011;40363;52.270;10.546;2023-03-01T01:51:48;11.45;;;7.40;;
54452;SDS011;40363;52.270;10.546;2023-03-01T01:54:22;13.98;;;8.38;;
54452;SDS011;40363;52.270;10.546;2023-03-01T01:56:55;19.08;;;7.97;;
54452;SDS011;40363;52.270;10.546;2023-03-01T01:59:26;10.07;;;6.50;;
54452;SDS011;40363;52.270;10.546;2023-03-01T02:01:54;11.68;;;6.53;;
54452;SDS011;40363;52.270;10.546;2023-03-01T02:04:22;13.05;;;6.85;;
54452;SDS011;40363;52.270;10.546;2023-03-01T02:06:51;11.48;;;6.47;;
54452;SDS011;40363;52.270;10.546;2023-03-01T02:09:24;13.90;;;7.75;;
54452;SDS011;40363;52.270;10.546;2023-03-01T02:11:51;15.27;;;6.95;;
54452;SDS011;40363;52.270;10.546;2023-03-01T02:14:19;11.75;;;6.93;;
54452;SDS011;40363;52.270;10.546;2023-03-01T02:16:46;13.13;;;7.15;;
54452;SDS011;40363;52.270;10.546;2023-03-01T02:19:17;9.38;;;6.15;;
54452;SDS011;40363;52.270;10.546;2023-03-01T02:21:52;11.25;;;6.53;;
54452;SDS011;40363;52.270;10.546;2023-03-01T02:24:31;11.75;;;7.35;;
54452;SDS011;40363;52.270;10.546;2023-03-01T02:27:05;16.08;;;7.15;;
54452;SDS011;40363;52.270;10.546;2023-03-01T02:29:34;11.65;;;6.57;;
54452;SDS011;40363;52.270;10.546;2023-03-01T02:32:01;13.45;;;6.57;;
54452;SDS011;40363;52.270;10.546;2023-03-01T02:34:28;12.90;;;6.97;;
54452;SDS011;40363;52.270;10.546;2023-03-01T02:37:00;15.65;;;7.45;;
54452;SDS011;40363;52.270;10.546;2023-03-01T02:39:30;16.45;;;7.75;;
54452;SDS011;40363;52.270;10.546;2023-03-01T02:41:59;11.52;;;6.22;;
54452;SDS011;40363;52.270;10.546;2023-03-01T02:44:27;15.70;;;7.30;;
54452;SDS011;40363;52.270;10.546;2023-03-01T02:46:56;13.05;;;7.35;;
54452;SDS011;40363;52.270;10.546;2023-03-01T02:49:28;13.90;;;6.75;;
54452;SDS011;40363;52.270;10.546;2023-03-01T02:52:03;15.73;;;7.05;;
54452;SDS011;40363;52.270;10.546;2023-03-01T02:54:40;15.45;;;6.40;;
54452;SDS011;40363;52.270;10.546;2023-03-01T02:57:12;9.70;;;5.93;;
54452;SDS011;40363;52.270;10.546;2023-03-01T02:59:40;14.65;;;6.47;;
54452;SDS011;40363;52.270;10.546;2023-03-01T03:02:18;11.63;;;6.95;;
54452;SDS011;40363;52.270;10.546;2023-03-01T03:05:00;12.45;;;6.50;;
54452;SDS011;40363;52.270;10.546;2023-03-01T03:07:28;11.65;;;6.53;;
54452;SDS011;40363;52.270;10.546;2023-03-01T03:09:55;13.90;;;7.05;;
54452;SDS011;40363;52.270;10.546;2023-03-01T03:12:21;19.05;;;6.43;;
54452;SDS011;40363;52.270;10.546;2023-03-01T03:14:48;11.10;;;6.10;;
54452;SDS011;40363;52.270;10.546;2023-03-01T03:17:14;14.40;;;5.95;;
54452;SDS011;40363;52.270;10.546;2023-03-01T03:19:42;16.02;;;6.45;;
54452;SDS011;40363;52.270;10.546;2023-03-01T03:22:10;10.50;;;5.57;;
54452;SDS011;40363;52.270;10.546;2023-03-01T03:24:37;12.98;;;5.68;;
54452;SDS011;40363;52.270;10.546;2023-03-01T03:27:04;10.38;;;5.63;;
54452;SDS011;40363;52.270;10.546;2023-03-01T03:29:30;9.32;;;6.30;;
54452;SDS011;40363;52.270;10.546;2023-03-01T03:31:57;13.35;;;6.35;;
54452;SDS011;40363;52.270;10.546;2023-03-01T03:34:24;14.52;;;5.35;;
54452;SDS011;40363;52.270;10.546;2023-03-01T03:36:54;11.02;;;6.20;;
54452;SDS011;40363;52.270;10.546;2023-03-01T03:39:24;11.88;;;5.78;;
54452;SDS011;40363;52.270;10.546;2023-03-01T03:41:51;11.30;;;5.80;;
54452;SDS011;40363;52.270;10.546;2023-03-01T03:44:18;8.43;;;4.40;;
54452;SDS011;40363;52.270;10.546;2023-03-01T03:46:44;12.25;;;6.38;;
54452;SDS011;40363;52.270;10.546;2023-03-01T03:49:11;8.68;;;5.75;;
54452;SDS011;40363;52.270;10.546;2023-03-01T03:51:38;13.23;;;5.22;;
54452;SDS011;40363;52.270;10.546;2023-03-01T03:54:05;11.70;;;6.43;;
54452;SDS011;40363;52.270;10.546;2023-03-01T03:56:32;13.80;;;5.78;;
54452;SDS011;40363;52.270;10.546;2023-03-01T03:59:00;11.18;;;6.15;;
54452;SDS011;40363;52.270;10.546;2023-03-01T04:01:26;12.45;;;6.13;;
54452;SDS011;40363;52.270;10.546;2023-03-01T04:03:53;12.82;;;6.75;;
54452;SDS011;40363;52.270;10.546;2023-03-01T04:06:20;9.18;;;5.63;;
54452;SDS011;40363;52.270;10.546;2023-03-01T04:08:47;10.02;;;5.93;;
54452;SDS011;40363;52.270;10.546;2023-03-01T04:11:17;11.30;;;5.30;;
54452;SDS011;40363;52.270;10.546;2023-03-01T04:13:53;11.68;;;6.53;;
54452;SDS011;40363;52.270;10.546;2023-03-01T04:16:21;11.38;;;5.38;;
54452;SDS011;40363;52.270;10.546;2023-03-01T04:18:48;8.20;;;5.60;;
54452;SDS011;40363;52.270;10.546;2023-03-01T04:21:15;11.50;;;6.28;;
54452;SDS011;40363;52.270;10.546;2023-03-01T04:23:41;12.13;;;5.55;;
54452;SDS011;40363;52.270;10.546;2023-03-01T04:26:08;9.35;;;5.97;;
54452;SDS011;40363;52.270;10.546;2023-03-01T04:28:37;9.52;;;5.60;;
54452;SDS011;40363;52.270;10.546;2023-03-01T04:31:05;10.35;;;5.75;;
54452;SDS011;40363;52.270;10.546;2023-03-01T04:33:38;7.60;;;5.30;;
54452;SDS011;40363;52.270;10.546;2023-03-01T04:36:07;10.88;;;5.85;;
54452;SDS011;40363;52.270;10.546;2023-03-01T04:38:34;7.40;;;5.28;;
54452;SDS011;40363;52.270;10.546;2023-03-01T04:41:02;11.85;;;6.20;;
54452;SDS011;40363;52.270;10.546;2023-03-01T04:43:29;11.65;;;5.20;;
54452;SDS011;40363;52.270;10.546;2023-03-01T04:46:00;10.05;;;6.15;;
54452;SDS011;40363;52.270;10.546;2023-03-01T04:48:29;11.32;;;6.22;;
54452;SDS011;40363;52.270;10.546;2023-03-01T04:50:56;15.00;;;6.50;;
54452;SDS011;40363;52.270;10.546;2023-03-01T04:53:23;9.75;;;5.53;;
54452;SDS011;40363;52.270;10.546;2023-03-01T04:55:49;10.23;;;5.28;;
54452;SDS011;40363;52.270;10.546;2023-03-01T04:58:16;11.02;;;6.00;;
54452;SDS011;40363;52.270;10.546;2023-03-01T05:00:43;11.35;;;5.85;;
54452;SDS011;40363;52.270;10.546;2023-03-01T05:03:11;12.95;;;6.32;;
54452;SDS011;40363;52.270;10.546;2023-03-01T05:05:38;12.40;;;6.05;;
54452;SDS011;40363;52.270;10.546;2023-03-01T05:08:05;9.35;;;5.15;;
54452;SDS011;40363;52.270;10.546;2023-03-01T05:10:34;11.48;;;5.68;;
54452;SDS011;40363;52.270;10.546;2023-03-01T05:13:03;13.82;;;6.63;;
54452;SDS011;40363;52.270;10.546;2023-03-01T05:15:31;11.13;;;5.60;;
54452;SDS011;40363;52.270;10.546;2023-03-01T05:17:58;12.60;;;6.03;;
54452;SDS011;40363;52.270;10.546;2023-03-01T05:20:27;10.70;;;5.90;;
54452;SDS011;40363;52.270;10.546;2023-03-01T05:22:55;10.60;;;5.82;;
54452;SDS011;40363;52.270;10.546;2023-03-01T05:25:23;9.60;;;5.28;;
54452;SDS011;40363;52.270;10.546;2023-03-01T05:27:50;10.05;;;5.20;;
54452;SDS011;40363;52.270;10.546;2023-03-01T05:30:17;9.02;;;4.47;;
54452;SDS011;40363;52.270;10.546;2023-03-01T05:32:45;12.93;;;5.90;;
54452;SDS011;40363;52.270;10.546;2023-03-01T05:35:13;8.38;;;5.32;;
54452;SDS011;40363;52.270;10.546;2023-03-01T05:37:42;12.98;;;5.75;;
54452;SDS011;40363;52.270;10.546;2023-03-01T05:40:10;10.68;;;5.85;;
54452;SDS011;40363;52.270;10.546;2023-03-01T05:42:41;7.80;;;5.95;;
54452;SDS011;40363;52.270;10.546;2023-03-01T05:45:11;10.77;;;6.57;;
54452;SDS011;40363;52.270;10.546;2023-03-01T05:47:39;9.45;;;5.22;;
54452;SDS011;40363;52.270;10.546;2023-03-01T05:50:09;9.93;;;5.93;;
54452;SDS011;40363;52.270;10.546;2023-03-01T05:52:37;8.27;;;5.78;;
54452;SDS011;40363;52.270;10.546;2023-03-01T05:55:06;8.23;;;5.20;;
54452;SDS011;40363;52.270;10.546;2023-03-01T05:57:33;10.27;;;6.07;;
54452;SDS011;40363;52.270;10.546;2023-03-01T06:00:00;12.50;;;6.13;;
54452;SDS011;40363;52.270;10.546;2023-03-01T06:02:26;8.93;;;5.82;;
54452;SDS011;40363;52.270;10.546;2023-03-01T06:04:54;16.92;;;5.78;;
54452;SDS011;40363;52.270;10.546;2023-03-01T06:07:21;14.40;;;6.00;;
54452;SDS011;40363;52.270;10.546;2023-03-01T06:09:47;12.73;;;6.18;;
54452;SDS011;40363;52.270;10.546;2023-03-01T06:12:15;14.02;;;6.22;;
54452;SDS011;40363;52.270;10.546;2023-03-01T06:14:42;10.85;;;5.82;;
54452;SDS011;40363;52.270;10.546;2023-03-01T06:17:09;12.60;;;5.57;;
54452;SDS011;40363;52.270;10.546;2023-03-01T06:19:35;11.27;;;5.50;;
54452;SDS011;40363;52.270;10.546;2023-03-01T06:22:02;9.88;;;5.60;;
54452;SDS011;40363;52.270;10.546;2023-03-01T06:24:29;12.30;;;5.50;;
54452;SDS011;40363;52.270;10.546;2023-03-01T06:26:55;12.07;;;6.55;;
54452;SDS011;40363;52.270;10.546;2023-03-01T06:29:23;10.18;;;6.50;;
54452;SDS011;40363;52.270;10.546;2023-03-01T06:31:50;9.45;;;4.85;;
54452;SDS011;40363;52.270;10.546;2023-03-01T06:34:16;13.27;;;6.85;;
54452;SDS011;40363;52.270;10.546;2023-03-01T06:36:44;7.38;;;5.13;;
54452;SDS011;40363;52.270;10.546;2023-03-01T06:39:10;8.38;;;5.53;;
54452;SDS011;40363;52.270;10.546;2023-03-01T06:41:37;16.70;;;6.25;;
54452;SDS011;40363;52.270;10.546;2023-03-01T06:44:03;9.52;;;4.85;;
54452;SDS011;40363;52.270;10.546;2023-03-01T06:46:31;10.07;;;5.50;;
54452;SDS011;40363;52.270;10.546;2023-03-01T06:48:58;8.55;;;5.72;;
54452;SDS011;40363;52.270;10.546;2023-03-01T06:51:25;10.95;;;6.38;;
54452;SDS011;40363;52.270;10.546;2023-03-01T06:53:54;12.13;;;6.53;;
54452;SDS011;40363;52.270;10.546;2023-03-01T06:56:24;11.40;;;6.65;;
54452;SDS011;40363;52.270;10.546;2023-03-01T06:58:51;9.15;;;6.53;;
54452;SDS011;40363;52.270;10.546;2023-03-01T07:01:17;11.73;;;5.95;;
54452;SDS011;40363;52.270;10.546;2023-03-01T07:03:45;10.98;;;5.65;;
54452;SDS011;40363;52.270;10.546;2023-03-01T07:06:12;8.85;;;5.53;;
54452;SDS011;40363;52.270;10.546;2023-03-01T07:08:38;8.90;;;5.53;;
54452;SDS011;40363;52.270;10.546;2023-03-01T07:11:05;8.07;;;5.47;;
54452;SDS011;40363;52.270;10.546;2023-03-01T07:13:32;8.65;;;4.95;;
54452;SDS011;40363;52.270;10.546;2023-03-01T07:15:58;11.38;;;4.90;;
54452;SDS011;40363;52.270;10.546;2023-03-01T07:18:25;6.25;;;4.53;;
54452;SDS011;40363;52.270;10.546;2023-03-01T07:20:53;13.40;;;6.28;;
54452;SDS011;40363;52.270;10.546;2023-03-01T07:23:20;11.50;;;6.63;;
54452;SDS011;40363;52.270;10.546;2023-03-01T07:25:50;11.80;;;7.05;;
54452;SDS011;40363;52.270;10.546;2023-03-01T07:28:17;11.65;;;6.28;;
54452;SDS011;40363;52.270;10.546;2023-03-01T07:30:44;12.63;;;7.03;;
54452;SDS011;40363;52.270;10.546;2023-03-01T07:33:10;13.98;;;7.00;;
54452;SDS011;40363;52.270;10.546;2023-03-01T07:35:37;14.27;;;7.38;;
54452;SDS011;40363;52.270;10.546;2023-03-01T07:38:05;11.27;;;6.10;;
54452;SDS011;40363;52.270;10.546;2023-03-01T07:40:32;17.65;;;6.85;;
54452;SDS011;40363;52.270;10.546;2023-03-01T07:42:59;10.65;;;5.60;;
54452;SDS011;40363;52.270;10.546;2023-03-01T07:45:26;12.80;;;6.53;;
54452;SDS011;40363;52.270;10.546;2023-03-01T07:47:54;16.40;;;7.20;;
54452;SDS011;40363;52.270;10.546;2023-03-01T07:50:21;11.57;;;6.40;;
54452;SDS011;40363;52.270;10.546;2023-03-01T07:52:49;9.95;;;5.38;;
54452;SDS011;40363;52.270;10.546;2023-03-01T07:55:17;11.02;;;6.20;;
54452;SDS011;40363;52.270;10.546;2023-03-01T07:57:44;12.85;;;5.22;;
54452;SDS011;40363;52.270;10.546;2023-03-01T08:00:11;11.57;;;6.63;;
54452;SDS011;40363;52.270;10.546;2023-03-01T08:02:38;10.60;;;5.97;;
54452;SDS011;40363;52.270;10.546;2023-03-01T08:05:07;12.90;;;7.07;;
54452;SDS011;40363;52.270;10.546;2023-03-01T08:07:34;8.20;;;5.15;;
54452;SDS011;40363;52.270;10.546;2023-03-01T08:10:00;11.52;;;6.28;;
54452;SDS011;40363;52.270;10.546;2023-03-01T08:12:28;11.85;;;6.25;;
54452;SDS011;40363;52.270;10.546;2023-03-01T08:14:55;11.38;;;5.82;;
54452;SDS011;40363;52.270;10.546;2023-03-01T08:17:22;11.90;;;5.60;;
54452;SDS011;40363;52.270;10.546;2023-03-01T08:19:48;9.50;;;5.38;;
54452;SDS011;40363;52.270;10.546;2023-03-01T08:22:15;13.93;;;7.00;;
54452;SDS011;40363;52.270;10.546;2023-03-01T08:24:42;9.65;;;5.75;;
54452;SDS011;40363;52.270;10.546;2023-03-01T08:27:08;12.20;;;5.75;;
54452;SDS011;40363;52.270;10.546;2023-03-01T08:29:38;11.95;;;5.53;;
54452;SDS011;40363;52.270;10.546;2023-03-01T08:32:05;9.80;;;4.75;;
54452;SDS011;40363;52.270;10.546;2023-03-01T08:34:31;10.32;;;4.72;;
54452;SDS011;40363;52.270;10.546;2023-03-01T08:37:00;8.20;;;3.90;;
54452;SDS011;40363;52.270;10.546;2023-03-01T08:39:27;6.15;;;3.78;;
54452;SDS011;40363;52.270;10.546;2023-03-01T08:41:54;7.80;;;4.45;;
54452;SDS011;40363;52.270;10.546;2023-03-01T08:44:20;8.50;;;4.57;;
54452;SDS011;40363;52.270;10.546;2023-03-01T08:46:49;9.80;;;5.20;;
54452;SDS011;40363;52.270;10.546;2023-03-01T08:49:18;8.05;;;4.68;;
54452;SDS011;40363;52.270;10.546;2023-03-01T08:51:46;6.78;;;4.88;;
54452;SDS011;40363;52.270;10.546;2023-03-01T08:54:14;8.63;;;4.90;;
54452;SDS011;40363;52.270;10.546;2023-03-01T08:56:43;8.52;;;3.90;;
54452;SDS011;40363;52.270;10.546;2023-03-01T08:59:11;7.57;;;3.70;;
54452;SDS011;40363;52.270;10.546;2023-03-01T09:01:38;7.88;;;3.20;;
54452;SDS011;40363;52.270;10.546;2023-03-01T09:04:09;9.48;;;3.90;;
54452;SDS011;40363;52.270;10.546;2023-03-01T09:06:36;5.05;;;3.80;;
54452;SDS011;40363;52.270;10.546;2023-03-01T09:09:03;7.18;;;4.10;;
54452;SDS011;40363;52.270;10.546;2023-03-01T09:11:31;7.28;;;3.97;;
54452;SDS011;40363;52.270;10.546;2023-03-01T09:13:58;6.43;;;3.70;;
54452;SDS011;40363;52.270;10.546;2023-03-01T09:16:24;10.13;;;4.43;;
54452;SDS011;40363;52.270;10.546;2023-03-01T09:18:52;6.20;;;3.42;;
54452;SDS011;40363;52.270;10.546;2023-03-01T09:21:22;7.90;;;4.20;;
54452;SDS011;40363;52.270;10.546;2023-03-01T09:23:51;6.60;;;4.10;;
54452;SDS011;40363;52.270;10.546;2023-03-01T09:26:18;7.72;;;4.05;;
54452;SDS011;40363;52.270;10.546;2023-03-01T09:28:47;5.68;;;3.75;;
54452;SDS011;40363;52.270;10.546;2023-03-01T09:31:15;6.60;;;4.03;;
54452;SDS011;40363;52.270;10.546;2023-03-01T09:33:45;5.38;;;3.47;;
54452;SDS011;40363;52.270;10.546;2023-03-01T09:36:15;8.00;;;4.00;;
54452;SDS011;40363;52.270;10.546;2023-03-01T09:38:45;5.60;;;3.70;;
54452;SDS011;40363;52.270;10.546;2023-03-01T09:41:21;5.10;;;3.47;;
54452;SDS011;40363;52.270;10.546;2023-03-01T09:44:03;8.90;;;4.45;;
54452;SDS011;40363;52.270;10.546;2023-03-01T09:46:37;6.57;;;3.45;;
54452;SDS011;40363;52.270;10.546;2023-03-01T09:49:09;9.95;;;4.22;;
54452;SDS011;40363;52.270;10.546;2023-03-01T09:51:38;6.07;;;3.33;;
54452;SDS011;40363;52.270;10.546;2023-03-01T09:54:06;9.63;;;3.90;;
54452;SDS011;40363;52.270;10.546;2023-03-01T09:56:36;4.93;;;3.33;;
54452;SDS011;40363;52.270;10.546;2023-03-01T09:59:09;6.47;;;3.10;;
54452;SDS011;40363;52.270;10.546;2023-03-01T10:01:46;6.75;;;3.30;;
54452;SDS011;40363;52.270;10.546;2023-03-01T10:04:35;5.75;;;2.90;;
54452;SDS011;40363;52.270;10.546;2023-03-01T10:07:17;6.57;;;3.33;;
54452;SDS011;40363;52.270;10.546;2023-03-01T10:09:54;7.18;;;2.65;;
54452;SDS011;40363;52.270;10.546;2023-03-01T10:12:22;6.13;;;3.03;;
54452;SDS011;40363;52.270;10.546;2023-03-01T10:14:55;6.72;;;3.65;;
54452;SDS011;40363;52.270;10.546;2023-03-01T10:17:30;4.85;;;3.95;;
54452;SDS011;40363;52.270;10.546;2023-03-01T10:20:14;6.57;;;3.42;;
54452;SDS011;40363;52.270;10.546;2023-03-01T10:22:43;7.80;;;3.92;;
54452;SDS011;40363;52.270;10.546;2023-03-01T10:25:17;4.10;;;2.72;;
54452;SDS011;40363;52.270;10.546;2023-03-01T10:27:53;5.13;;;2.78;;
54452;SDS011;40363;52.270;10.546;2023-03-01T10:30:22;5.70;;;3.00;;
54452;SDS011;40363;52.270;10.546;2023-03-01T10:32:58;8.93;;;3.92;;
54452;SDS011;40363;52.270;10.546;2023-03-01T10:35:26;5.88;;;3.03;;
54452;SDS011;40363;52.270;10.546;2023-03-01T10:37:58;5.15;;;2.50;;
54452;SDS011;40363;52.270;10.546;2023-03-01T10:40:30;7.03;;;3.75;;
54452;SDS011;40363;52.270;10.546;2023-03-01T10:42:58;4.70;;;3.05;;
54452;SDS011;40363;52.270;10.546;2023-03-01T10:45:30;5.72;;;3.10;;
54452;SDS011;40363;52.270;10.546;2023-03-01T10:48:12;5.82;;;3.22;;
54452;SDS011;40363;52.270;10.546;2023-03-01T10:50:41;5.55;;;3.05;;
54452;SDS011;40363;52.270;10.546;2023-03-01T10:53:19;6.80;;;3.20;;
54452;SDS011;40363;52.270;10.546;2023-03-01T10:55:50;6.65;;;2.95;;
54452;SDS011;40363;52.270;10.546;2023-03-01T10:58:23;7.97;;;3.22;;
54452;SDS011;40363;52.270;10.546;2023-03-01T11:00:50;6.35;;;3.13;;
54452;SDS011;40363;52.270;10.546;2023-03-01T11:03:21;6.88;;;3.08;;
54452;SDS011;40363;52.270;10.546;2023-03-01T11:05:51;4.80;;;2.60;;
54452;SDS011;40363;52.270;10.546;2023-03-01T11:08:29;5.90;;;3.20;;
54452;SDS011;40363;52.270;10.546;2023-03-01T11:11:14;6.00;;;3.13;;
54452;SDS011;40363;52.270;10.546;2023-03-01T11:13:49;4.20;;;2.60;;
54452;SDS011;40363;52.270;10.546;2023-03-01T11:16:23;6.20;;;3.10;;
54452;SDS011;40363;52.270;10.546;2023-03-01T11:18:59;6.32;;;2.90;;
54452;SDS011;40363;52.270;10.546;2023-03-01T11:21:30;5.60;;;2.80;;
54452;SDS011;40363;52.270;10.546;2023-03-01T11:24:00;4.60;;;3.30;;
54452;SDS011;40363;52.270;10.546;2023-03-01T11:26:30;6.28;;;3.13;;
54452;SDS011;40363;52.270;10.546;2023-03-01T11:29:03;4.53;;;2.22;;
54452;SDS011;40363;52.270;10.546;2023-03-01T11:31:33;4.70;;;2.30;;
54452;SDS011;40363;52.270;10.546;2023-03-01T11:34:03;4.65;;;2.70;;
54452;SDS011;40363;52.270;10.546;2023-03-01T11:36:34;5.10;;;2.60;;
54452;SDS011;40363;52.270;10.546;2023-03-01T11:39:12;5.13;;;3.58;;
54452;SDS011;40363;52.270;10.546;2023-03-01T11:41:48;4.50;;;2.55;;
54452;SDS011;40363;52.270;10.546;2023-03-01T11:44:20;5.32;;;2.40;;
54452;SDS011;40363;52.270;10.546;2023-03-01T11:46:56;4.30;;;2.55;;
54452;SDS011;40363;52.270;10.546;2023-03-01T11:49:44;4.57;;;2.38;;
54452;SDS011;40363;52.270;10.546;2023-03-01T11:52:33;4.95;;;2.50;;
54452;SDS011;40363;52.270;10.546;2023-03-01T11:55:12;4.82;;;2.08;;
54452;SDS011;40363;52.270;10.546;2023-03-01T11:57:52;4.25;;;2.20;;
54452;SDS011;40363;52.270;10.546;2023-03-01T12:00:37;5.03;;;2.85;;
54452;SDS011;40363;52.270;10.546;2023-03-01T12:03:23;6.00;;;2.47;;
54452;SDS011;40363;52.270;10.546;2023-03-01T12:05:57;5.35;;;3.25;;
54452;SDS011;40363;52.270;10.546;2023-03-01T12:08:33;5.78;;;2.83;;
54452;SDS011;40363;52.270;10.546;2023-03-01T12:11:08;5.10;;;2.67;;
54452;SDS011;40363;52.270;10.546;2023-03-01T12:16:53;5.80;;;2.58;;
54452;SDS011;40363;52.270;10.546;2023-03-01T12:19:46;6.00;;;2.70;;
54452;SDS011;40363;52.270;10.546;2023-03-01T12:22:31;6.75;;;2.95;;
54452;SDS011;40363;52.270;10.546;2023-03-01T12:25:07;6.25;;;3.00;;
54452;SDS011;40363;52.270;10.546;2023-03-01T12:30:38;9.27;;;2.65;;
54452;SDS011;40363;52.270;10.546;2023-03-01T12:33:16;5.35;;;2.72;;
54452;SDS011;40363;52.270;10.546;2023-03-01T12:36:10;4.55;;;2.78;;
54452;SDS011;40363;52.270;10.546;2023-03-01T12:38:59;3.83;;;2.58;;
54452;SDS011;40363;52.270;10.546;2023-03-01T12:41:43;4.63;;;2.42;;
54452;SDS011;40363;52.270;10.546;2023-03-01T12:44:29;6.97;;;2.40;;
54452;SDS011;40363;52.270;10.546;2023-03-01T12:47:15;5.70;;;2.63;;
54452;SDS011;40363;52.270;10.546;2023-03-01T12:49:54;6.33;;;2.80;;
54452;SDS011;40363;52.270;10.546;2023-03-01T12:52:26;7.55;;;3.17;;
54452;SDS011;40363;52.270;10.546;2023-03-01T12:54:59;3.83;;;2.75;;
54452;SDS011;40363;52.270;10.546;2023-03-01T12:57:29;7.35;;;2.88;;
54452;SDS011;40363;52.270;10.546;2023-03-01T13:00:06;5.75;;;3.53;;
54452;SDS011;40363;52.270;10.546;2023-03-01T13:02:48;6.85;;;3.00;;
54452;SDS011;40363;52.270;10.546;2023-03-01T13:05:23;4.28;;;2.72;;
54452;SDS011;40363;52.270;10.546;2023-03-01T13:07:58;4.47;;;2.55;;
54452;SDS011;40363;52.270;10.546;2023-03-01T13:10:32;5.40;;;2.70;;
54452;SDS011;40363;52.270;10.546;2023-03-01T13:13:13;5.82;;;2.72;;
54452;SDS011;40363;52.270;10.546;2023-03-01T13:15:44;6.18;;;2.63;;
54452;SDS011;40363;52.270;10.546;2023-03-01T13:21:00;3.45;;;2.60;;
54452;SDS011;40363;52.270;10.546;2023-03-01T13:23:31;5.03;;;2.72;;
54452;SDS011;40363;52.270;10.546;2023-03-01T13:26:08;4.03;;;2.53;;
54452;SDS011;40363;52.270;10.546;2023-03-01T13:28:40;6.68;;;2.85;;
54452;SDS011;40363;52.270;10.546;2023-03-01T13:34:44;6.05;;;3.08;;
54452;SDS011;40363;52.270;10.546;2023-03-01T13:37:20;5.55;;;2.83;;
54452;SDS011;40363;52.270;10.546;2023-03-01T13:39:50;4.32;;;2.67;;
54452;SDS011;40363;52.270;10.546;2023-03-01T13:42:32;5.43;;;3.10;;
54452;SDS011;40363;52.270;10.546;2023-03-01T13:45:24;5.05;;;3.05;;
54452;SDS011;40363;52.270;10.546;2023-03-01T13:48:01;5.18;;;2.97;;
54452;SDS011;40363;52.270;10.546;2023-03-01T13:50:38;6.07;;;2.92;;
54452;SDS011;40363;52.270;10.546;2023-03-01T13:53:14;4.60;;;3.05;;
54452;SDS011;40363;52.270;10.546;2023-03-01T13:55:45;7.13;;;2.60;;
54452;SDS011;40363;52.270;10.546;2023-03-01T13:58:15;5.68;;;3.03;;
54452;SDS011;40363;52.270;10.546;2023-03-01T14:00:45;3.83;;;2.67;;
54452;SDS011;40363;52.270;10.546;2023-03-01T14:03:13;6.22;;;2.83;;
54452;SDS011;40363;52.270;10.546;2023-03-01T14:05:43;8.05;;;3.55;;
54452;SDS011;40363;52.270;10.546;2023-03-01T14:08:23;5.75;;;3.30;;
54452;SDS011;40363;52.270;10.546;2023-03-01T14:17:09;5.25;;;3.10;;
54452;SDS011;40363;52.270;10.546;2023-03-01T14:19:54;5.68;;;3.10;;
54452;SDS011;40363;52.270;10.546;2023-03-01T14:22:24;2.72;;;2.30;;
54452;SDS011;40363;52.270;10.546;2023-03-01T14:24:55;5.50;;;2.65;;
54452;SDS011;40363;52.270;10.546;2023-03-01T14:27:24;5.68;;;2.42;;
54452;SDS011;40363;52.270;10.546;2023-03-01T14:29:56;4.95;;;2.60;;
54452;SDS011;40363;52.270;10.546;2023-03-01T14:32:25;4.55;;;2.33;;
54452;SDS011;40363;52.270;10.546;2023-03-01T14:34:54;4.15;;;2.40;;
54452;SDS011;40363;52.270;10.546;2023-03-01T14:37:22;4.07;;;2.30;;
54452;SDS011;40363;52.270;10.546;2023-03-01T14:39:53;3.75;;;1.92;;
54452;SDS011;40363;52.270;10.546;2023-03-01T14:42:21;5.43;;;2.38;;
54452;SDS011;40363;52.270;10.546;2023-03-01T14:44:50;5.22;;;3.05;;
54452;SDS011;40363;52.270;10.546;2023-03-01T14:47:25;4.97;;;2.47;;
54452;SDS011;40363;52.270;10.546;2023-03-01T14:52:25;4.07;;;2.42;;
54452;SDS011;40363;52.270;10.546;2023-03-01T14:55:01;2.90;;;1.90;;
54452;SDS011;40363;52.270;10.546;2023-03-01T14:57:30;3.00;;;2.15;;
54452;SDS011;40363;52.270;10.546;2023-03-01T14:59:58;4.47;;;2.78;;
54452;SDS011;40363;52.270;10.546;2023-03-01T15:02:29;4.80;;;2.10;;
54452;SDS011;40363;52.270;10.546;2023-03-01T15:04:57;4.82;;;2.15;;
54452;SDS011;40363;52.270;10.546;2023-03-01T15:07:28;4.50;;;2.13;;